Time;durP1;ratioP1;P1;durP2;ratioP2;P2;SDS_P1;SDS_P2;PMS_P1;PMS_P2;Temp;Humidity;BMP_temperature;BMP_pressure;BME280_temperature;BME280_humidity;BME280_pressure;Samples;Min_cycle;Max_cycle;Signal;HPM_P1;HPM_P2
2021/12/27 00:02:07;;;;;;;8.73;5.73;;;1.10;53.80;;;3.95;43.74;100609.03;4863535;29;20603;-62
2021/12/27 00:04:34;;;;;;;8.53;6.03;;;1.10;53.70;;;3.99;44.01;100615.59;4863852;29;20244;-61
2021/12/27 00:07:02;;;;;;;6.63;5.10;;;1.20;53.70;;;4.03;43.94;100610.97;4863587;29;20243;-63
2021/12/27 00:09:29;;;;;;;7.50;5.50;;;1.20;53.70;;;4.06;44.36;100611.50;4863773;29;20205;-62
2021/12/27 00:11:56;;;;;;;8.23;6.03;;;1.20;53.80;;;4.11;44.67;100603.31;4863738;29;20208;-62
2021/12/27 00:14:24;;;;;;;7.67;4.97;;;1.20;53.80;;;4.17;44.37;100617.53;4863125;29;20223;-63
2021/12/27 00:16:52;;;;;;;9.23;5.97;;;1.30;53.80;;;4.20;43.79;100612.91;4863480;29;20671;-62
2021/12/27 00:19:20;;;;;;;7.93;5.67;;;1.30;53.70;;;4.28;44.03;100601.81;4862911;29;20207;-62
2021/12/27 00:21:47;;;;;;;7.13;4.80;;;1.30;53.70;;;4.32;43.21;100597.94;4862834;29;20199;-62
2021/12/27 00:24:15;;;;;;;9.07;6.10;;;1.40;53.60;;;4.36;43.25;100591.50;4862485;29;20220;-62
2021/12/27 00:26:44;;;;;;;8.77;5.50;;;1.40;53.60;;;4.38;44.08;100584.34;4862720;29;20321;-63
2021/12/27 00:29:11;;;;;;;9.03;5.13;;;1.40;53.60;;;4.38;43.45;100579.16;4862900;29;20277;-63
2021/12/27 00:31:39;;;;;;;8.80;5.63;;;1.40;53.50;;;4.38;43.54;100573.94;4862936;29;20202;-62
2021/12/27 00:34:07;;;;;;;8.30;5.53;;;1.40;53.50;;;4.40;43.55;100574.63;4862303;29;20244;-61
2021/12/27 00:36:35;;;;;;;9.83;5.80;;;1.40;53.50;;;4.42;43.39;100564.91;4862644;29;20551;-61
2021/12/27 00:39:03;;;;;;;7.50;5.47;;;1.40;53.50;;;4.41;43.70;100558.88;4862957;29;20198;-62
2021/12/27 00:41:31;;;;;;;9.07;5.70;;;1.50;53.50;;;4.39;43.27;100550.38;4862667;29;20193;-63
2021/12/27 00:43:58;;;;;;;7.93;5.53;;;1.50;53.40;;;4.39;44.17;100552.16;4862351;29;20219;-63
2021/12/27 00:46:25;;;;;;;8.07;5.23;;;1.50;53.40;;;4.37;44.38;100546.25;4862867;29;20276;-62
2021/12/27 00:48:53;;;;;;;9.23;5.73;;;1.50;53.30;;;4.33;44.20;100547.47;4862471;29;20269;-61
2021/12/27 00:51:22;;;;;;;9.07;5.60;;;1.50;53.30;;;4.28;43.62;100536.69;4862513;29;20710;-63
2021/12/27 00:53:49;;;;;;;7.70;5.00;;;1.50;53.40;;;4.23;44.68;100538.88;4861987;29;20228;-62
2021/12/27 00:56:16;;;;;;;9.10;5.63;;;1.50;53.70;;;4.20;44.62;100534.78;4862695;29;20198;-62
2021/12/27 00:58:43;;;;;;;10.43;5.40;;;1.40;54.10;;;4.18;44.86;100528.88;4862565;29;20628;-61
2021/12/27 01:01:11;;;;;;;8.13;5.27;;;1.40;54.40;;;4.18;44.30;100535.88;4862369;29;20203;-61
2021/12/27 01:03:38;;;;;;;8.57;6.17;;;1.40;54.30;;;4.18;45.17;100525.44;4862349;29;20304;-63
2021/12/27 01:06:06;;;;;;;8.87;5.33;;;1.40;54.80;;;4.16;45.08;100532.59;4862069;29;20198;-63
2021/12/27 01:08:36;;;;;;;6.83;4.93;;;1.40;54.70;;;4.17;45.11;100532.44;4862630;29;20670;-62
2021/12/27 01:16:42;;;;;;;10.57;5.30;;;1.40;54.90;;;4.14;45.07;100537.13;4862420;29;20296;-63
2021/12/27 01:19:10;;;;;;;9.10;5.40;;;1.40;54.70;;;4.13;45.18;100528.47;4862096;29;20201;-61
2021/12/27 01:21:38;;;;;;;6.87;5.07;;;1.40;54.80;;;4.15;45.18;100520.50;4861728;29;20199;-63
2021/12/27 01:24:07;;;;;;;9.47;5.57;;;1.40;55.10;;;4.16;45.45;100519.56;4861493;29;20249;-63
2021/12/27 01:26:34;;;;;;;7.50;5.10;;;1.40;55.20;;;4.20;45.50;100519.16;4861602;29;20206;-62
2021/12/27 01:29:06;;;;;;;7.73;4.87;;;1.40;55.10;;;4.25;45.13;100516.13;4861811;29;20194;-62
2021/12/27 01:31:34;;;;;;;9.27;5.83;;;1.40;55.10;;;4.26;45.54;100512.53;4861566;29;20208;-63
2021/12/27 01:34:02;;;;;;;7.93;5.57;;;1.40;55.20;;;4.26;45.17;100510.75;4861569;29;20718;-62
2021/12/27 01:36:32;;;;;;;7.30;5.17;;;1.40;55.40;;;4.28;45.29;100508.03;4862102;29;20201;-61
2021/12/27 01:39:00;;;;;;;9.57;5.43;;;1.40;55.50;;;4.32;46.08;100512.00;4861468;29;20201;-63
2021/12/27 01:41:29;;;;;;;7.50;4.87;;;1.40;55.60;;;4.34;45.35;100510.91;4861831;29;20209;-62
2021/12/27 01:43:57;;;;;;;8.13;4.87;;;1.40;55.60;;;4.34;44.91;100510.91;4861607;29;20240;-61
2021/12/27 01:46:28;;;;;;;5.80;4.80;;;1.40;55.60;;;4.33;45.12;100508.41;4861837;29;20194;-65
2021/12/27 01:48:56;;;;;;;11.07;6.00;;;1.40;55.70;;;4.30;45.42;100504.34;4861645;29;20725;-65
2021/12/27 01:51:26;;;;;;;7.67;5.53;;;1.40;56.20;;;4.28;45.73;100508.03;4861578;29;20198;-63
2021/12/27 01:53:56;;;;;;;7.90;5.63;;;1.40;55.60;;;4.25;45.45;100510.91;4860980;29;20219;-64
2021/12/27 01:56:24;;;;;;;9.20;5.77;;;1.40;55.70;;;4.25;45.63;100510.91;4860855;29;20298;-63
2021/12/27 01:58:55;;;;;;;8.27;5.27;;;1.30;55.60;;;4.24;45.32;100511.84;4861152;29;20541;-60
2021/12/27 02:01:24;;;;;;;8.30;5.57;;;1.30;55.70;;;4.23;45.35;100507.63;4843065;29;20207;-63
2021/12/27 02:03:54;;;;;;;7.13;4.97;;;1.30;55.80;;;4.22;45.81;100505.97;4842584;29;20221;-63
2021/12/27 02:06:22;;;;;;;8.30;5.80;;;1.30;55.80;;;4.23;45.68;100507.63;4842810;29;20679;-61
2021/12/27 02:08:49;;;;;;;10.97;6.00;;;1.30;55.80;;;4.25;45.98;100505.69;4858015;29;20222;-63
2021/12/27 02:11:19;;;;;;;8.27;5.40;;;1.30;55.90;;;4.26;45.08;100513.38;4861066;29;20211;-65
2021/12/27 02:13:48;;;;;;;7.63;5.37;;;1.30;55.80;;;4.23;45.68;100510.22;4860740;29;20278;-64
2021/12/27 02:16:20;;;;;;;7.83;5.30;;;1.30;55.60;;;4.21;45.99;100512.97;4860894;29;20208;-64
2021/12/27 02:18:48;;;;;;;8.27;5.80;;;1.30;55.70;;;4.21;45.47;100523.38;4861222;29;20196;-61
2021/12/27 02:21:19;;;;;;;6.60;5.10;;;1.40;55.70;;;4.19;45.13;100516.66;4861420;29;20202;-63
2021/12/27 02:23:49;;;;;;;7.77;5.53;;;1.40;55.60;;;4.23;45.83;100523.25;4860703;29;20217;-65
2021/12/27 02:26:17;;;;;;;8.77;5.40;;;1.40;55.80;;;4.24;45.67;100509.25;4861565;29;20203;-60
2021/12/27 02:28:45;;;;;;;9.00;5.47;;;1.40;55.80;;;4.29;44.98;100512.28;4861444;29;20726;-64
2021/12/27 02:31:13;;;;;;;8.87;6.13;;;1.40;55.80;;;4.31;45.62;100505.13;4863460;29;20733;-64
2021/12/27 02:33:42;;;;;;;7.67;5.07;;;1.40;55.70;;;4.28;45.09;100503.63;4861642;29;20236;-63
2021/12/27 02:36:12;;;;;;;7.07;5.00;;;1.40;55.60;;;4.28;45.96;100500.22;4863282;29;20358;-63
2021/12/27 02:38:44;;;;;;;10.13;5.87;;;1.40;55.60;;;4.28;45.47;100501.03;4863526;29;20189;-61
2021/12/27 02:41:12;;;;;;;7.93;4.90;;;1.40;55.50;;;4.28;45.64;100502.81;4863377;29;20203;-61
2021/12/27 02:43:42;;;;;;;6.27;4.67;;;1.40;55.30;;;4.29;45.09;100501.84;4863361;29;20304;-62
2021/12/27 02:46:14;;;;;;;8.77;5.40;;;1.40;55.40;;;4.31;45.61;100487.72;4866009;29;20197;-61
2021/12/27 02:48:46;;;;;;;9.00;5.90;;;1.40;55.30;;;4.31;44.51;100485.13;4864779;29;20678;-63
2021/12/27 02:51:17;;;;;;;8.00;5.10;;;1.50;55.40;;;4.32;45.79;100475.53;4865020;29;20185;-64
2021/12/27 02:53:47;;;;;;;7.30;5.40;;;1.40;55.30;;;4.31;44.88;100468.66;4864541;29;20217;-62
2021/12/27 02:56:14;;;;;;;9.30;5.87;;;1.50;55.50;;;4.33;45.41;100466.72;4864520;29;20197;-64
2021/12/27 02:58:41;;;;;;;7.57;5.00;;;1.40;55.60;;;4.36;45.42;100466.47;4864736;29;20193;-62
2021/12/27 03:01:13;;;;;;;10.47;5.90;;;1.50;55.60;;;4.40;46.01;100463.44;4864529;29;20201;-62
2021/12/27 03:03:41;;;;;;;8.87;5.77;;;1.50;55.70;;;4.44;45.85;100458.78;4864219;29;20284;-65
2021/12/27 03:06:09;;;;;;;9.77;6.00;;;1.50;55.70;;;4.42;45.88;100450.28;4864367;29;20193;-63
2021/12/27 03:08:38;;;;;;;9.60;5.97;;;1.50;55.70;;;4.43;45.46;100449.31;4864434;29;20217;-63
2021/12/27 03:11:10;;;;;;;12.93;6.47;;;1.50;55.70;;;4.39;45.06;100456.59;4864388;29;20198;-62
2021/12/27 03:13:40;;;;;;;8.13;5.33;;;1.50;55.70;;;4.37;45.65;100452.50;4862976;29;20233;-62
2021/12/27 03:16:11;;;;;;;8.80;5.60;;;1.50;55.60;;;4.34;46.30;100442.34;4864374;29;20704;-63
2021/12/27 03:18:43;;;;;;;8.70;5.27;;;1.50;55.70;;;4.35;46.17;100446.59;4864397;29;20548;-62
2021/12/27 03:21:12;;;;;;;9.80;6.43;;;1.50;55.80;;;4.37;45.40;100448.09;4864323;29;20743;-60
2021/12/27 03:23:41;;;;;;;9.37;6.23;;;1.50;55.90;;;4.37;45.67;100455.09;4863632;29;20576;-62
2021/12/27 03:26:11;;;;;;;9.67;6.07;;;1.50;55.90;;;4.29;45.76;100444.56;4864162;29;20296;-64
2021/12/27 03:28:40;;;;;;;9.60;6.20;;;1.50;55.90;;;4.25;46.00;100449.22;4863777;29;20570;-62
2021/12/27 03:31:09;;;;;;;9.87;6.07;;;1.50;56.50;;;4.26;45.63;100431.81;4864105;29;20620;-62
2021/12/27 03:33:37;;;;;;;8.43;6.03;;;1.50;56.00;;;4.27;46.59;100431.69;4863566;29;20622;-65
2021/12/27 03:36:08;;;;;;;9.27;6.20;;;1.50;56.20;;;4.31;46.43;100422.59;4863841;29;20202;-64
2021/12/27 03:38:39;;;;;;;9.23;5.80;;;1.50;56.20;;;4.35;46.74;100418.75;4863789;29;20554;-63
2021/12/27 03:41:12;;;;;;;8.77;6.03;;;1.50;56.20;;;4.41;46.41;100414.75;4863928;29;20535;-63
2021/12/27 03:43:41;;;;;;;11.07;6.43;;;1.50;56.30;;;4.43;45.96;100415.44;4863650;29;20222;-63
2021/12/27 03:46:09;;;;;;;9.00;6.20;;;1.50;57.00;;;4.43;46.05;100410.22;4863911;29;20205;-61
2021/12/27 03:48:37;;;;;;;9.73;6.40;;;1.50;56.30;;;4.38;45.59;100404.63;4863685;29;20217;-63
2021/12/27 03:51:06;;;;;;;10.77;6.77;;;1.50;56.30;;;4.39;46.21;100406.28;4863707;29;20196;-63
2021/12/27 03:53:34;;;;;;;8.90;6.30;;;1.50;56.30;;;4.41;46.57;100406.94;4863298;29;20702;-62
2021/12/27 03:56:02;;;;;;;9.67;6.37;;;1.50;56.30;;;4.38;45.74;100412.44;4863414;29;20203;-61
2021/12/27 03:58:44;;;;;;;8.60;6.47;;;1.60;56.50;;;4.30;46.40;100410.56;4863300;29;20219;-63
2021/12/27 04:01:16;;;;;;;10.30;6.60;;;1.50;56.50;;;4.25;46.79;100428.41;4863132;29;20206;-63
2021/12/27 04:03:47;;;;;;;8.37;6.60;;;1.60;56.70;;;4.18;47.44;100427.31;4862908;29;20239;-63
2021/12/27 04:06:17;;;;;;;8.77;6.23;;;1.50;56.80;;;4.13;47.27;100428.69;4863714;29;20667;-61
2021/12/27 04:08:45;;;;;;;9.57;6.30;;;1.50;56.90;;;4.09;47.57;100422.94;4863513;29;20600;-63
2021/12/27 04:11:14;;;;;;;12.00;7.20;;;1.50;57.10;;;4.05;47.52;100422.41;4862065;29;20729;-63
2021/12/27 04:13:43;;;;;;;9.83;6.30;;;1.40;57.20;;;4.06;47.18;100423.25;4862654;29;20264;-61
2021/12/27 04:16:10;;;;;;;10.33;7.07;;;1.40;57.30;;;4.10;47.87;100420.22;4863121;29;20207;-63
2021/12/27 04:18:38;;;;;;;11.13;6.63;;;1.50;57.40;;;4.11;47.64;100421.03;4862926;29;20548;-64
2021/12/27 04:21:05;;;;;;;11.30;7.27;;;1.50;57.70;;;4.13;47.54;100418.28;4863065;29;20229;-64
2021/12/27 04:23:33;;;;;;;10.37;6.83;;;1.40;57.70;;;4.15;47.38;100406.78;4862465;29;20225;-63
2021/12/27 04:26:00;;;;;;;11.83;7.17;;;1.50;57.70;;;4.18;47.29;100400.47;4862989;29;20201;-62
2021/12/27 04:28:28;;;;;;;9.27;7.03;;;1.50;57.80;;;4.26;47.30;100408.38;4862902;29;20231;-63
2021/12/27 04:30:56;;;;;;;10.83;6.43;;;1.50;57.80;;;4.27;47.46;100399.59;4862388;29;20205;-62
2021/12/27 04:33:24;;;;;;;11.17;6.80;;;1.50;57.80;;;4.28;48.20;100385.63;4862208;29;20230;-64
2021/12/27 04:35:51;;;;;;;11.20;7.40;;;1.50;57.80;;;4.26;47.88;100388.34;4844259;29;20198;-63
2021/12/27 04:38:19;;;;;;;12.83;7.73;;;1.50;57.80;;;4.23;47.49;100387.84;4844120;29;20193;-63
2021/12/27 04:40:49;;;;;;;9.87;7.07;;;1.50;58.00;;;4.19;48.36;100383.84;4844371;29;20195;-63
2021/12/27 04:43:21;;;;;;;11.17;6.93;;;1.50;58.10;;;4.16;48.19;100371.94;4843921;29;20214;-64
2021/12/27 04:45:51;;;;;;;14.60;7.67;;;1.50;58.30;;;4.14;48.48;100367.88;4849320;29;20209;-61
2021/12/27 04:48:24;;;;;;;10.87;7.27;;;1.50;58.40;;;4.13;47.86;100368.81;4862424;29;20811;-63
2021/12/27 04:50:52;;;;;;;11.43;7.73;;;1.40;58.30;;;4.12;48.33;100362.78;4862110;29;20283;-63
2021/12/27 04:53:20;;;;;;;11.60;7.97;;;1.40;58.50;;;4.07;48.21;100363.22;4862109;29;20218;-62
2021/12/27 04:55:48;;;;;;;12.80;7.77;;;1.40;58.60;;;4.02;48.90;100365.41;4862673;29;20201;-63
2021/12/27 04:58:17;;;;;;;11.70;7.50;;;1.30;58.50;;;3.92;49.16;100362.00;4862303;29;20204;-62
2021/12/27 05:00:51;;;;;;;11.60;7.10;;;1.30;58.70;;;3.88;48.75;100360.66;4862736;29;20385;-62
2021/12/27 05:03:19;;;;;;;11.93;7.47;;;1.30;58.60;;;3.88;48.70;100373.69;4862017;29;20217;-63
2021/12/27 05:05:47;;;;;;;11.27;7.57;;;1.20;58.60;;;3.84;48.90;100371.50;4861626;29;20205;-63
2021/12/27 05:08:14;;;;;;;11.77;7.60;;;1.20;58.90;;;3.69;49.25;100368.50;4861383;29;20339;-62
2021/12/27 05:10:45;;;;;;;10.73;7.63;;;1.10;59.00;;;3.59;49.37;100367.69;4861924;29;20209;-63
2021/12/27 05:13:13;;;;;;;12.43;8.13;;;1.10;59.10;;;3.56;49.41;100362.78;4861602;29;20232;-61
2021/12/27 05:15:41;;;;;;;13.67;8.00;;;1.00;59.10;;;3.56;49.82;100362.78;4862002;29;20212;-63
2021/12/27 05:18:10;;;;;;;12.37;7.57;;;1.00;59.20;;;3.58;49.79;100370.44;4861860;29;20194;-62
2021/12/27 05:20:38;;;;;;;12.43;7.40;;;0.90;59.40;;;3.59;49.97;100367.69;4861197;29;20203;-63
2021/12/27 05:23:06;;;;;;;12.20;7.87;;;0.90;59.70;;;3.55;49.95;100366.34;4861004;29;20704;-62
2021/12/27 05:25:33;;;;;;;10.87;8.43;;;0.90;59.60;;;3.53;49.64;100367.44;4861911;29;20268;-63
2021/12/27 05:28:01;;;;;;;12.40;7.97;;;0.80;59.70;;;3.48;49.74;100365.25;4862065;29;20232;-63
2021/12/27 05:30:28;;;;;;;11.60;7.73;;;0.80;59.80;;;3.47;49.74;100363.59;4861544;29;20199;-63
2021/12/27 05:32:56;;;;;;;11.30;7.97;;;0.80;59.90;;;3.46;49.94;100354.19;4861603;29;20221;-63
2021/12/27 05:35:23;;;;;;;12.97;8.37;;;0.80;60.20;;;3.43;50.58;100352.66;4861273;29;20199;-64
2021/12/27 05:37:52;;;;;;;10.80;7.27;;;0.80;60.30;;;3.45;50.03;100344.72;4860749;29;20198;-63
2021/12/27 05:40:22;;;;;;;14.17;8.10;;;0.80;60.20;;;3.54;50.12;100337.88;4861207;29;20215;-63
2021/12/27 05:42:51;;;;;;;12.90;8.20;;;0.80;60.50;;;3.59;50.26;100339.09;4861545;29;20302;-63
2021/12/27 05:45:20;;;;;;;12.83;7.33;;;0.80;60.80;;;3.67;50.07;100334.00;4861369;29;20199;-62
2021/12/27 05:47:48;;;;;;;12.27;7.93;;;0.80;60.90;;;3.70;49.82;100318.13;4861483;29;20198;-63
2021/12/27 05:50:17;;;;;;;15.07;8.83;;;0.90;61.00;;;3.76;50.14;100322.75;4861190;29;20195;-61
2021/12/27 05:52:48;;;;;;;12.97;7.53;;;0.90;60.80;;;3.82;49.44;100330.00;4860678;29;20279;-63
2021/12/27 05:55:17;;;;;;;14.07;8.63;;;0.90;60.90;;;3.84;49.45;100320.28;4861092;29;20671;-63
2021/12/27 05:57:44;;;;;;;15.30;9.13;;;1.00;60.90;;;3.90;50.20;100309.28;4861471;29;20198;-63
2021/12/27 06:00:14;;;;;;;12.67;8.67;;;1.00;60.80;;;3.97;49.71;100312.94;4860829;29;20193;-63
2021/12/27 06:02:42;;;;;;;17.40;8.40;;;1.10;60.90;;;3.99;49.99;100302.41;4860484;29;20262;-63
2021/12/27 06:05:11;;;;;;;14.57;8.93;;;1.10;60.90;;;4.03;49.28;100296.78;4861101;29;20200;-63
2021/12/27 06:07:39;;;;;;;16.67;9.07;;;1.10;60.90;;;4.04;49.79;100295.78;4860943;29;20272;-63
2021/12/27 06:10:08;;;;;;;11.43;8.10;;;1.10;60.70;;;4.08;50.06;100297.16;4861008;29;20240;-63
2021/12/27 06:12:38;;;;;;;12.33;7.73;;;1.20;60.60;;;4.14;49.52;100313.97;4860470;29;20204;-63
2021/12/27 06:15:08;;;;;;;12.47;8.70;;;1.20;60.80;;;4.13;49.35;100322.78;4860741;29;20224;-63
2021/12/27 06:17:36;;;;;;;16.20;8.20;;;1.30;60.80;;;4.11;49.62;100315.09;4860535;29;20201;-64
2021/12/27 06:20:07;;;;;;;13.60;8.63;;;1.30;60.70;;;4.05;49.72;100318.28;4860497;29;20194;-62
2021/12/27 06:22:37;;;;;;;13.03;8.73;;;1.30;60.70;;;4.03;49.91;100320.22;4860320;29;20197;-64
2021/12/27 06:25:06;;;;;;;13.43;8.60;;;1.30;60.70;;;4.05;50.43;100307.03;4859394;29;20201;-62
2021/12/27 06:27:34;;;;;;;13.13;8.57;;;1.30;60.70;;;4.05;50.45;100307.88;4859602;29;20661;-63
2021/12/27 06:30:07;;;;;;;13.77;9.67;;;1.30;60.90;;;4.05;50.19;100297.44;4860690;29;20232;-61
2021/12/27 06:32:35;;;;;;;17.40;9.83;;;1.30;61.00;;;4.09;49.89;100304.00;4860651;29;20220;-58
2021/12/27 06:35:03;;;;;;;15.93;9.93;;;1.30;61.00;;;4.07;50.50;100305.94;4862064;29;20193;-62
2021/12/27 06:37:31;;;;;;;13.50;8.90;;;1.30;61.00;;;4.01;49.96;100303.09;4861629;29;20205;-62
2021/12/27 06:39:58;;;;;;;15.27;9.80;;;1.40;61.30;;;4.00;50.68;100306.66;4861612;29;20622;-63
2021/12/27 06:42:25;;;;;;;14.17;9.47;;;1.40;61.40;;;3.97;50.89;100304.34;4861394;29;20189;-60
2021/12/27 06:44:53;;;;;;;13.13;9.00;;;1.40;61.50;;;4.02;50.31;100302.94;4861606;29;20206;-62
2021/12/27 06:47:22;;;;;;;15.30;9.13;;;1.40;61.50;;;4.07;51.02;100303.31;4861879;29;20664;-63
2021/12/27 06:49:50;;;;;;;12.93;9.40;;;1.40;61.70;;;4.12;50.60;100297.69;4862002;29;20294;-62
2021/12/27 06:52:18;;;;;;;16.97;9.40;;;1.40;61.70;;;4.16;50.68;100298.22;4860789;29;20193;-64
2021/12/27 06:54:46;;;;;;;14.70;9.33;;;1.40;61.80;;;4.25;51.31;100297.38;4860369;29;20218;-63
2021/12/27 06:57:17;;;;;;;15.00;8.90;;;1.50;62.00;;;4.34;50.40;100299.09;4860538;29;20194;-63
2021/12/27 06:59:46;;;;;;;15.37;9.73;;;1.50;62.00;;;4.40;50.04;100301.09;4860187;29;20567;-63
2021/12/27 07:02:14;;;;;;;12.43;9.13;;;1.50;62.20;;;4.37;50.62;100306.63;4859821;29;20659;-62
2021/12/27 07:04:43;;;;;;;14.87;9.93;;;1.60;62.10;;;4.31;50.74;100312.38;4860314;29;20560;-62
2021/12/27 07:07:10;;;;;;;14.00;8.53;;;1.60;62.10;;;4.28;51.14;100304.91;4860454;29;20208;-64
2021/12/27 07:09:38;;;;;;;17.03;9.70;;;1.60;62.10;;;4.27;50.97;100306.66;4860644;29;20236;-63
2021/12/27 07:12:07;;;;;;;16.37;9.43;;;1.60;62.10;;;4.28;51.51;100304.91;4862312;29;20200;-63
2021/12/27 07:14:34;;;;;;;16.13;10.37;;;1.60;62.20;;;4.26;51.64;100304.19;4860476;29;20309;-62
2021/12/27 07:17:02;;;;;;;15.60;9.97;;;1.60;62.40;;;4.21;51.89;100306.44;4860190;29;20201;-64
2021/12/27 07:19:31;;;;;;;15.63;10.20;;;1.60;62.50;;;4.15;52.17;100304.41;4860060;29;20281;-63
2021/12/27 07:22:00;;;;;;;13.83;9.83;;;1.60;62.80;;;4.04;51.98;100311.41;4859670;29;20208;-61
2021/12/27 07:24:27;;;;;;;16.87;10.70;;;1.50;62.90;;;4.03;51.88;100309.78;4860571;29;20309;-61
2021/12/27 07:26:54;;;;;;;13.87;9.47;;;1.50;63.00;;;4.07;52.63;100303.31;4861263;29;20202;-63
2021/12/27 07:29:22;;;;;;;14.90;10.03;;;1.50;63.10;;;4.13;51.62;100314.13;4861241;29;20222;-63
2021/12/27 07:31:49;;;;;;;16.80;10.10;;;1.50;63.20;;;4.18;52.51;100306.72;4864563;29;20213;-64
2021/12/27 07:34:19;;;;;;;17.47;9.97;;;1.50;63.40;;;4.20;51.68;100310.00;4863443;29;20687;-63
2021/12/27 07:36:47;;;;;;;15.87;10.07;;;1.60;63.60;;;4.24;52.25;100306.13;4863655;29;20201;-64
2021/12/27 07:39:16;;;;;;;16.00;10.43;;;1.60;63.50;;;4.21;52.51;100307.22;4863842;29;20200;-63
2021/12/27 07:41:45;;;;;;;14.77;10.80;;;1.60;63.90;;;4.13;52.31;100309.75;4863715;29;20206;-63
2021/12/27 07:44:12;;;;;;;14.77;10.27;;;1.60;64.20;;;4.09;52.80;100304.00;4863800;29;20297;-63
2021/12/27 07:46:41;;;;;;;17.37;10.77;;;1.60;64.20;;;4.05;52.80;100310.47;4863062;29;20209;-62
2021/12/27 07:49:11;;;;;;;16.83;10.93;;;1.50;64.70;;;4.12;52.84;100313.31;4863843;29;20229;-61
2021/12/27 07:51:40;;;;;;;14.00;10.57;;;1.60;64.60;;;4.19;53.14;100305.72;4863238;29;20210;-63
2021/12/27 07:54:08;;;;;;;16.07;11.13;;;1.60;64.80;;;4.24;53.16;100306.13;4862975;29;20225;-63
2021/12/27 07:56:37;;;;;;;15.77;11.03;;;1.60;65.00;;;4.26;53.60;100301.59;4863218;29;20197;-62
2021/12/27 07:59:05;;;;;;;16.87;11.33;;;1.60;65.20;;;4.30;53.41;100300.34;4862966;29;20558;-63
2021/12/27 08:01:35;;;;;;;16.83;11.57;;;1.60;65.40;;;4.30;53.87;100300.34;4862875;29;20198;-63
2021/12/27 08:04:05;;;;;;;17.53;11.90;;;1.60;65.60;;;4.29;53.42;100303.91;4862344;29;20290;-63
2021/12/27 08:06:33;;;;;;;16.53;11.90;;;1.70;65.80;;;4.33;53.46;100305.25;4862321;29;20197;-63
2021/12/27 08:09:00;;;;;;;16.17;11.27;;;1.70;65.90;;;4.34;54.31;100306.91;4844199;29;20304;-63
2021/12/27 08:11:28;;;;;;;21.23;11.67;;;1.70;66.30;;;4.37;54.05;100311.84;4844335;29;20225;-62
2021/12/27 08:13:56;;;;;;;18.60;12.27;;;1.70;66.30;;;4.37;53.54;100307.44;4844064;29;20245;-63
2021/12/27 08:16:24;;;;;;;18.17;12.13;;;1.70;66.60;;;4.36;54.59;100310.19;4843068;29;20205;-62
2021/12/27 08:18:52;;;;;;;17.40;11.53;;;1.70;66.80;;;4.40;54.49;100308.91;4844601;29;20202;-62
2021/12/27 08:21:22;;;;;;;17.33;12.07;;;1.80;67.00;;;4.42;54.61;100299.19;4844613;29;20202;-61
2021/12/27 08:23:50;;;;;;;14.13;11.17;;;1.80;67.00;;;4.45;55.26;100310.13;4857792;29;20220;-63
2021/12/27 08:26:18;;;;;;;17.67;12.10;;;1.80;67.30;;;4.46;55.21;100303.13;4863036;29;20202;-63
2021/12/27 08:28:50;;;;;;;15.73;11.20;;;1.80;67.40;;;4.49;54.94;100300.25;4862834;29;20220;-62
2021/12/27 08:31:18;;;;;;;18.97;13.00;;;1.80;67.30;;;4.52;54.89;100289.50;4863186;29;20590;-64
2021/12/27 08:33:46;;;;;;;19.57;12.73;;;1.80;67.60;;;4.55;55.24;100299.66;4862445;29;20324;-61
2021/12/27 08:36:14;;;;;;;20.20;13.57;;;1.90;67.70;;;4.56;55.41;100289.09;4862890;29;20198;-63
2021/12/27 08:38:44;;;;;;;16.43;11.83;;;1.90;68.00;;;4.49;55.60;100289.81;4862529;29;20198;-63
2021/12/27 08:41:12;;;;;;;18.73;12.90;;;1.90;68.10;;;4.51;54.85;100290.50;4853212;29;20217;-61
2021/12/27 08:43:39;;;;;;;19.70;12.87;;;1.90;67.90;;;4.57;54.92;100282.06;4862556;29;20691;-63
2021/12/27 08:46:07;;;;;;;17.43;12.53;;;1.90;68.00;;;4.67;54.90;100280.22;4862765;29;20195;-62
2021/12/27 08:48:37;;;;;;;18.93;14.13;;;1.90;68.10;;;4.73;54.97;100267.41;4862776;29;20200;-72
2021/12/27 08:51:05;;;;;;;20.40;13.53;;;2.00;68.30;;;4.83;54.30;100267.34;4864342;29;20233;-62
2021/12/27 08:53:32;;;;;;;20.63;13.90;;;2.00;68.20;;;4.91;53.96;100277.84;4864752;29;20222;-62
2021/12/27 08:55:59;;;;;;;21.67;13.23;;;2.10;68.40;;;4.99;55.29;100283.13;4864939;29;20221;-63
2021/12/27 08:58:27;;;;;;;19.93;12.80;;;2.10;68.40;;;5.00;54.75;100290.00;4864534;29;20202;-63
2021/12/27 09:00:54;;;;;;;18.80;13.27;;;2.20;68.40;;;5.00;54.50;100284.78;4864154;29;20200;-62
2021/12/27 09:03:22;;;;;;;19.50;13.97;;;2.20;68.30;;;4.99;55.31;100283.13;4863791;29;20681;-63
2021/12/27 09:05:50;;;;;;;22.67;13.90;;;2.20;68.30;;;4.99;54.52;100293.56;4862155;29;20497;-66
2021/12/27 09:08:18;;;;;;;21.67;13.70;;;2.20;68.30;;;4.94;54.57;100285.38;4862095;29;20209;-62
2021/12/27 09:10:45;;;;;;;24.50;13.73;;;2.30;68.30;;;4.97;54.76;100284.28;4860883;29;20252;-64
2021/12/27 09:13:12;;;;;;;18.13;13.03;;;2.30;68.20;;;5.03;55.19;100286.25;4860485;29;20241;-64
2021/12/27 09:15:40;;;;;;;21.60;14.07;;;2.30;68.20;;;5.07;54.37;100288.41;4862263;29;20213;-64
2021/12/27 09:18:07;;;;;;;20.07;14.13;;;2.30;68.30;;;5.05;55.35;100287.75;4862072;29;20202;-64
2021/12/27 09:20:35;;;;;;;21.33;14.30;;;2.30;68.40;;;4.96;55.35;100293.03;4862419;29;20229;-63
2021/12/27 09:23:03;;;;;;;19.50;13.47;;;2.30;68.40;;;4.94;55.57;100277.56;4860445;29;20213;-63
2021/12/27 09:25:31;;;;;;;19.70;13.60;;;2.30;68.20;;;5.00;55.33;100282.16;4861863;29;20210;-62
2021/12/27 09:27:58;;;;;;;23.60;14.43;;;2.30;68.30;;;5.05;55.46;100279.09;4862279;29;20621;-61
2021/12/27 09:30:26;;;;;;;20.87;13.43;;;2.30;68.30;;;5.08;54.56;100278.81;4861956;29;20216;-63
2021/12/27 09:32:54;;;;;;;19.17;14.43;;;2.30;68.30;;;5.09;55.12;100283.88;4860467;29;20218;-64
2021/12/27 09:35:21;;;;;;;23.63;14.87;;;2.30;68.50;;;5.12;55.45;100288.78;4861861;29;20277;-64
2021/12/27 09:37:49;;;;;;;20.03;13.30;;;2.40;68.70;;;5.05;55.53;100282.53;4861178;29;20198;-63
2021/12/27 09:40:18;;;;;;;22.27;14.80;;;2.40;68.90;;;5.07;55.92;100280.59;4861224;29;20198;-63
2021/12/27 09:42:45;;;;;;;21.23;13.47;;;2.40;68.90;;;5.08;55.74;100277.03;4860150;29;20229;-63
2021/12/27 09:45:13;;;;;;;22.63;15.17;;;2.40;68.90;;;5.07;55.74;100280.59;4862064;29;20561;-64
2021/12/27 09:47:42;;;;;;;24.93;15.17;;;2.40;69.20;;;5.00;55.34;100274.34;4861494;29;20235;-63
2021/12/27 09:50:22;;;;;;;22.87;14.43;;;2.40;69.10;;;4.98;55.59;100271.06;4861718;29;20210;-63
2021/12/27 09:52:51;;;;;;;19.53;13.23;;;2.40;69.20;;;5.00;55.37;100274.34;4861819;29;20228;-62
2021/12/27 09:55:20;;;;;;;23.90;14.83;;;2.40;69.30;;;5.02;56.41;100277.63;4862087;29;20556;-63
2021/12/27 09:57:48;;;;;;;20.07;13.33;;;2.40;69.50;;;5.03;56.29;100276.66;4861722;29;20202;-63
2021/12/27 10:00:18;;;;;;;19.53;14.40;;;2.40;69.40;;;5.12;55.94;100280.13;4862293;29;20216;-64
2021/12/27 10:02:52;;;;;;;24.00;14.63;;;2.40;69.40;;;5.17;55.81;100280.50;4861253;29;20240;-63
2021/12/27 10:05:25;;;;;;;20.37;13.83;;;2.40;69.40;;;5.24;55.84;100276.31;4861208;29;20204;-64
2021/12/27 10:07:54;;;;;;;19.93;13.40;;;2.50;69.50;;;5.31;55.18;100272.13;4861270;29;20208;-62
2021/12/27 10:10:49;;;;;;;19.33;14.10;;;2.50;69.50;;;5.33;55.07;100263.19;4861564;29;20373;-63
2021/12/27 10:13:17;;;;;;;20.77;14.93;;;2.50;69.20;;;5.33;54.85;100263.19;4860564;29;20226;-65
2021/12/27 10:15:46;;;;;;;23.03;14.33;;;2.60;69.10;;;5.33;54.84;100246.72;4860681;29;20233;-64
2021/12/27 10:18:16;;;;;;;20.67;13.23;;;2.60;69.00;;;5.33;54.51;100247.53;4860767;29;20260;-65
2021/12/27 10:20:45;;;;;;;19.50;13.53;;;2.60;68.90;;;5.34;55.35;100241.34;4860412;29;20666;-64
2021/12/27 10:23:14;;;;;;;20.60;14.23;;;2.60;69.10;;;5.30;55.23;100242.63;4861236;29;20308;-64
2021/12/27 10:25:41;;;;;;;19.83;13.67;;;2.60;69.20;;;5.30;54.87;100240.00;4861043;29;20321;-61
2021/12/27 10:28:10;;;;;;;20.80;14.47;;;2.60;69.20;;;5.33;55.58;100234.50;4859147;29;20295;-63
2021/12/27 10:30:45;;;;;;;22.27;14.10;;;2.60;69.50;;;5.32;56.00;100232.88;4860500;29;20232;-63
2021/12/27 10:33:23;;;;;;;22.00;14.30;;;2.60;69.50;;;5.34;55.36;100228.31;4860441;29;20263;-63